sensor_id;sensor_type;location;lat;lon;timestamp;P1;durP1;ratioP1;P2;durP2;ratioP2
351;SDS011;164;50.784;6.496;2024-01-07T00:00:01;14.40;;;9.00;;
351;SDS011;164;50.784;6.496;2024-01-07T00:02:30;17.80;;;11.25;;
351;SDS011;164;50.784;6.496;2024-01-07T00:04:58;21.58;;;12.35;;
351;SDS011;164;50.784;6.496;2024-01-07T00:07:26;16.85;;;10.63;;
351;SDS011;164;50.784;6.496;2024-01-07T00:09:54;21.17;;;12.15;;
351;SDS011;164;50.784;6.496;2024-01-07T00:12:21;18.92;;;11.80;;
351;SDS011;164;50.784;6.496;2024-01-07T00:14:49;20.35;;;14.02;;
351;SDS011;164;50.784;6.496;2024-01-07T00:17:17;22.58;;;13.73;;
351;SDS011;164;50.784;6.496;2024-01-07T00:19:45;19.35;;;13.23;;
351;SDS011;164;50.784;6.496;2024-01-07T00:22:13;18.38;;;10.95;;
351;SDS011;164;50.784;6.496;2024-01-07T00:24:40;20.52;;;11.40;;
351;SDS011;164;50.784;6.496;2024-01-07T00:27:07;21.08;;;12.88;;
351;SDS011;164;50.784;6.496;2024-01-07T00:29:35;23.27;;;12.13;;
351;SDS011;164;50.784;6.496;2024-01-07T00:32:02;23.67;;;13.55;;
351;SDS011;164;50.784;6.496;2024-01-07T00:34:29;21.08;;;13.07;;
351;SDS011;164;50.784;6.496;2024-01-07T00:36:58;23.60;;;14.20;;
351;SDS011;164;50.784;6.496;2024-01-07T00:39:25;25.85;;;15.82;;
351;SDS011;164;50.784;6.496;2024-01-07T00:41:53;24.08;;;11.82;;
351;SDS011;164;50.784;6.496;2024-01-07T00:44:20;18.52;;;12.82;;
351;SDS011;164;50.784;6.496;2024-01-07T00:46:48;22.90;;;13.93;;
351;SDS011;164;50.784;6.496;2024-01-07T00:49:15;24.45;;;13.35;;
351;SDS011;164;50.784;6.496;2024-01-07T00:51:43;22.45;;;15.30;;
351;SDS011;164;50.784;6.496;2024-01-07T00:54:11;21.98;;;14.25;;
351;SDS011;164;50.784;6.496;2024-01-07T00:56:38;25.60;;;13.93;;
351;SDS011;164;50.784;6.496;2024-01-07T00:59:06;22.70;;;12.48;;
351;SDS011;164;50.784;6.496;2024-01-07T01:01:33;30.38;;;17.92;;
351;SDS011;164;50.784;6.496;2024-01-07T01:04:00;25.33;;;16.23;;
351;SDS011;164;50.784;6.496;2024-01-07T01:06:27;28.48;;;16.05;;
351;SDS011;164;50.784;6.496;2024-01-07T01:08:55;26.55;;;14.80;;
351;SDS011;164;50.784;6.496;2024-01-07T01:11:25;31.55;;;15.82;;
351;SDS011;164;50.784;6.496;2024-01-07T01:13:52;24.75;;;15.13;;
351;SDS011;164;50.784;6.496;2024-01-07T01:16:20;27.75;;;16.15;;
351;SDS011;164;50.784;6.496;2024-01-07T01:18:49;28.42;;;14.65;;
351;SDS011;164;50.784;6.496;2024-01-07T01:21:16;27.23;;;15.38;;
351;SDS011;164;50.784;6.496;2024-01-07T01:23:43;30.25;;;15.55;;
351;SDS011;164;50.784;6.496;2024-01-07T01:26:10;27.02;;;14.02;;
351;SDS011;164;50.784;6.496;2024-01-07T01:28:39;29.40;;;16.90;;
351;SDS011;164;50.784;6.496;2024-01-07T01:31:07;34.90;;;15.98;;
351;SDS011;164;50.784;6.496;2024-01-07T01:33:34;25.42;;;17.30;;
351;SDS011;164;50.784;6.496;2024-01-07T01:36:04;25.42;;;14.80;;
351;SDS011;164;50.784;6.496;2024-01-07T01:38:32;28.77;;;14.75;;
351;SDS011;164;50.784;6.496;2024-01-07T01:40:59;23.55;;;14.02;;
351;SDS011;164;50.784;6.496;2024-01-07T01:43:26;29.30;;;17.70;;
351;SDS011;164;50.784;6.496;2024-01-07T01:45:55;31.90;;;16.75;;
351;SDS011;164;50.784;6.496;2024-01-07T01:48:23;29.00;;;16.38;;
351;SDS011;164;50.784;6.496;2024-01-07T01:50:51;33.13;;;15.73;;
351;SDS011;164;50.784;6.496;2024-01-07T01:53:22;26.98;;;15.10;;
351;SDS011;164;50.784;6.496;2024-01-07T01:55:50;29.98;;;14.75;;
351;SDS011;164;50.784;6.496;2024-01-07T01:58:17;26.92;;;15.35;;
351;SDS011;164;50.784;6.496;2024-01-07T02:00:46;21.48;;;13.57;;
351;SDS011;164;50.784;6.496;2024-01-07T02:03:16;34.55;;;14.95;;
351;SDS011;164;50.784;6.496;2024-01-07T02:05:43;29.25;;;16.45;;
351;SDS011;164;50.784;6.496;2024-01-07T02:08:11;27.10;;;16.58;;
351;SDS011;164;50.784;6.496;2024-01-07T02:10:38;30.08;;;16.90;;
351;SDS011;164;50.784;6.496;2024-01-07T02:13:06;27.48;;;14.98;;
351;SDS011;164;50.784;6.496;2024-01-07T02:15:34;24.75;;;14.32;;
351;SDS011;164;50.784;6.496;2024-01-07T02:18:01;27.08;;;14.90;;
351;SDS011;164;50.784;6.496;2024-01-07T02:20:30;24.75;;;14.02;;
351;SDS011;164;50.784;6.496;2024-01-07T02:22:57;24.15;;;14.30;;
351;SDS011;164;50.784;6.496;2024-01-07T02:25:26;26.45;;;13.95;;
351;SDS011;164;50.784;6.496;2024-01-07T02:27:53;21.40;;;12.52;;
351;SDS011;164;50.784;6.496;2024-01-07T02:30:20;24.80;;;13.43;;
351;SDS011;164;50.784;6.496;2024-01-07T02:32:48;22.13;;;14.27;;
351;SDS011;164;50.784;6.496;2024-01-07T02:35:15;25.88;;;15.15;;
351;SDS011;164;50.784;6.496;2024-01-07T02:37:43;26.23;;;15.30;;
351;SDS011;164;50.784;6.496;2024-01-07T02:40:11;27.40;;;12.32;;
351;SDS011;164;50.784;6.496;2024-01-07T02:42:40;24.55;;;12.98;;
351;SDS011;164;50.784;6.496;2024-01-07T02:45:07;25.63;;;12.18;;
351;SDS011;164;50.784;6.496;2024-01-07T02:47:35;19.45;;;13.40;;
351;SDS011;164;50.784;6.496;2024-01-07T02:50:02;33.53;;;13.10;;
351;SDS011;164;50.784;6.496;2024-01-07T02:52:29;26.80;;;15.73;;
351;SDS011;164;50.784;6.496;2024-01-07T02:54:57;22.67;;;12.70;;
351;SDS011;164;50.784;6.496;2024-01-07T02:57:24;25.00;;;14.88;;
351;SDS011;164;50.784;6.496;2024-01-07T02:59:53;28.38;;;13.90;;
351;SDS011;164;50.784;6.496;2024-01-07T03:02:20;22.55;;;13.65;;
351;SDS011;164;50.784;6.496;2024-01-07T03:04:47;28.35;;;14.30;;
351;SDS011;164;50.784;6.496;2024-01-07T03:07:15;22.30;;;13.52;;
351;SDS011;164;50.784;6.496;2024-01-07T03:09:42;22.27;;;13.43;;
351;SDS011;164;50.784;6.496;2024-01-07T03:12:09;22.83;;;11.70;;
351;SDS011;164;50.784;6.496;2024-01-07T03:14:37;22.60;;;12.30;;
351;SDS011;164;50.784;6.496;2024-01-07T03:17:05;26.05;;;14.27;;
351;SDS011;164;50.784;6.496;2024-01-07T03:19:32;18.70;;;11.60;;
351;SDS011;164;50.784;6.496;2024-01-07T03:21:59;20.90;;;12.50;;
351;SDS011;164;50.784;6.496;2024-01-07T03:24:27;22.13;;;12.90;;
351;SDS011;164;50.784;6.496;2024-01-07T03:26:54;18.05;;;11.23;;
351;SDS011;164;50.784;6.496;2024-01-07T03:29:21;23.65;;;12.20;;
351;SDS011;164;50.784;6.496;2024-01-07T03:31:48;21.27;;;11.52;;
351;SDS011;164;50.784;6.496;2024-01-07T03:34:19;17.42;;;10.75;;
351;SDS011;164;50.784;6.496;2024-01-07T03:36:46;14.50;;;9.57;;
351;SDS011;164;50.784;6.496;2024-01-07T03:39:14;15.35;;;10.30;;
351;SDS011;164;50.784;6.496;2024-01-07T03:41:41;15.13;;;9.25;;
351;SDS011;164;50.784;6.496;2024-01-07T03:44:09;17.25;;;11.40;;
351;SDS011;164;50.784;6.496;2024-01-07T03:46:36;15.82;;;9.07;;
351;SDS011;164;50.784;6.496;2024-01-07T03:49:03;13.95;;;10.00;;
351;SDS011;164;50.784;6.496;2024-01-07T03:51:32;17.88;;;11.55;;
351;SDS011;164;50.784;6.496;2024-01-07T03:53:59;17.92;;;10.30;;
351;SDS011;164;50.784;6.496;2024-01-07T03:56:26;14.82;;;9.00;;
351;SDS011;164;50.784;6.496;2024-01-07T03:58:54;15.93;;;10.30;;
351;SDS011;164;50.784;6.496;2024-01-07T04:01:21;15.60;;;9.80;;
351;SDS011;164;50.784;6.496;2024-01-07T04:03:48;20.02;;;11.80;;
351;SDS011;164;50.784;6.496;2024-01-07T04:06:16;20.73;;;12.63;;
351;SDS011;164;50.784;6.496;2024-01-07T04:08:44;19.13;;;12.18;;
351;SDS011;164;50.784;6.496;2024-01-07T04:11:12;16.77;;;11.07;;
351;SDS011;164;50.784;6.496;2024-01-07T04:13:40;18.00;;;11.85;;
351;SDS011;164;50.784;6.496;2024-01-07T04:16:15;15.82;;;11.70;;
351;SDS011;164;50.784;6.496;2024-01-07T04:18:42;20.15;;;12.93;;
351;SDS011;164;50.784;6.496;2024-01-07T04:21:10;15.35;;;10.27;;
351;SDS011;164;50.784;6.496;2024-01-07T04:23:38;21.08;;;12.15;;
351;SDS011;164;50.784;6.496;2024-01-07T04:26:07;19.00;;;12.68;;
351;SDS011;164;50.784;6.496;2024-01-07T04:28:34;18.00;;;11.95;;
351;SDS011;164;50.784;6.496;2024-01-07T04:31:01;18.42;;;13.65;;
351;SDS011;164;50.784;6.496;2024-01-07T04:33:29;18.77;;;12.27;;
351;SDS011;164;50.784;6.496;2024-01-07T04:35:56;17.80;;;11.02;;
351;SDS011;164;50.784;6.496;2024-01-07T04:38:25;20.95;;;12.35;;
351;SDS011;164;50.784;6.496;2024-01-07T04:40:53;19.77;;;11.88;;
351;SDS011;164;50.784;6.496;2024-01-07T04:43:21;19.10;;;13.00;;
351;SDS011;164;50.784;6.496;2024-01-07T04:45:49;20.75;;;13.90;;
351;SDS011;164;50.784;6.496;2024-01-07T04:48:16;16.80;;;12.75;;
351;SDS011;164;50.784;6.496;2024-01-07T04:50:43;17.00;;;11.68;;
351;SDS011;164;50.784;6.496;2024-01-07T04:53:10;20.38;;;12.90;;
351;SDS011;164;50.784;6.496;2024-01-07T04:55:38;20.15;;;13.13;;
351;SDS011;164;50.784;6.496;2024-01-07T04:58:05;19.85;;;11.55;;
351;SDS011;164;50.784;6.496;2024-01-07T05:00:34;17.10;;;11.15;;
351;SDS011;164;50.784;6.496;2024-01-07T05:03:01;12.55;;;9.90;;
351;SDS011;164;50.784;6.496;2024-01-07T05:05:28;19.30;;;12.57;;
351;SDS011;164;50.784;6.496;2024-01-07T05:07:56;11.55;;;9.25;;
351;SDS011;164;50.784;6.496;2024-01-07T05:10:25;12.63;;;9.60;;
351;SDS011;164;50.784;6.496;2024-01-07T05:12:52;14.27;;;8.07;;
351;SDS011;164;50.784;6.496;2024-01-07T05:15:20;12.35;;;10.73;;
351;SDS011;164;50.784;6.496;2024-01-07T05:17:49;13.75;;;9.75;;
351;SDS011;164;50.784;6.496;2024-01-07T05:20:17;13.82;;;9.65;;
351;SDS011;164;50.784;6.496;2024-01-07T05:22:44;12.82;;;9.57;;
351;SDS011;164;50.784;6.496;2024-01-07T05:25:11;15.35;;;10.70;;
351;SDS011;164;50.784;6.496;2024-01-07T05:27:39;15.93;;;11.43;;
351;SDS011;164;50.784;6.496;2024-01-07T05:30:07;15.32;;;12.23;;
351;SDS011;164;50.784;6.496;2024-01-07T05:32:34;14.60;;;10.45;;
351;SDS011;164;50.784;6.496;2024-01-07T05:35:03;14.35;;;10.30;;
351;SDS011;164;50.784;6.496;2024-01-07T05:37:30;15.85;;;11.38;;
351;SDS011;164;50.784;6.496;2024-01-07T05:39:58;13.25;;;9.50;;
351;SDS011;164;50.784;6.496;2024-01-07T05:42:25;17.73;;;10.90;;
351;SDS011;164;50.784;6.496;2024-01-07T05:44:52;19.40;;;10.63;;
351;SDS011;164;50.784;6.496;2024-01-07T05:47:19;16.30;;;10.35;;
351;SDS011;164;50.784;6.496;2024-01-07T05:49:47;15.52;;;10.45;;
351;SDS011;164;50.784;6.496;2024-01-07T05:52:18;20.40;;;12.63;;
351;SDS011;164;50.784;6.496;2024-01-07T05:54:45;13.88;;;9.98;;
351;SDS011;164;50.784;6.496;2024-01-07T05:57:12;19.02;;;11.75;;
351;SDS011;164;50.784;6.496;2024-01-07T05:59:40;13.35;;;9.20;;
351;SDS011;164;50.784;6.496;2024-01-07T06:02:07;14.00;;;10.50;;
351;SDS011;164;50.784;6.496;2024-01-07T06:04:34;15.80;;;9.88;;
351;SDS011;164;50.784;6.496;2024-01-07T06:07:02;15.38;;;11.43;;
351;SDS011;164;50.784;6.496;2024-01-07T06:09:31;18.00;;;11.35;;
351;SDS011;164;50.784;6.496;2024-01-07T06:11:58;18.30;;;10.55;;
351;SDS011;164;50.784;6.496;2024-01-07T06:14:25;18.92;;;11.93;;
351;SDS011;164;50.784;6.496;2024-01-07T06:16:52;14.15;;;11.38;;
351;SDS011;164;50.784;6.496;2024-01-07T06:19:20;13.82;;;10.77;;
351;SDS011;164;50.784;6.496;2024-01-07T06:21:47;17.85;;;12.52;;
351;SDS011;164;50.784;6.496;2024-01-07T06:24:15;12.70;;;10.57;;
351;SDS011;164;50.784;6.496;2024-01-07T06:26:43;15.07;;;10.07;;
351;SDS011;164;50.784;6.496;2024-01-07T06:29:11;15.43;;;10.60;;
351;SDS011;164;50.784;6.496;2024-01-07T06:31:42;15.85;;;10.40;;
351;SDS011;164;50.784;6.496;2024-01-07T06:34:10;17.42;;;12.18;;
351;SDS011;164;50.784;6.496;2024-01-07T06:36:39;13.63;;;10.20;;
351;SDS011;164;50.784;6.496;2024-01-07T06:39:06;17.90;;;11.85;;
351;SDS011;164;50.784;6.496;2024-01-07T06:41:34;14.13;;;11.05;;
351;SDS011;164;50.784;6.496;2024-01-07T06:44:03;16.20;;;12.07;;
351;SDS011;164;50.784;6.496;2024-01-07T06:46:30;18.85;;;11.60;;
351;SDS011;164;50.784;6.496;2024-01-07T06:48:59;18.02;;;12.85;;
351;SDS011;164;50.784;6.496;2024-01-07T06:51:26;14.13;;;10.90;;
351;SDS011;164;50.784;6.496;2024-01-07T06:53:54;15.32;;;10.82;;
351;SDS011;164;50.784;6.496;2024-01-07T06:56:21;16.20;;;10.00;;
351;SDS011;164;50.784;6.496;2024-01-07T06:58:49;15.00;;;11.35;;
351;SDS011;164;50.784;6.496;2024-01-07T07:01:19;11.95;;;9.68;;
351;SDS011;164;50.784;6.496;2024-01-07T07:03:48;13.43;;;9.95;;
351;SDS011;164;50.784;6.496;2024-01-07T07:06:15;17.05;;;12.20;;
351;SDS011;164;50.784;6.496;2024-01-07T07:08:42;14.05;;;10.70;;
351;SDS011;164;50.784;6.496;2024-01-07T07:11:09;15.32;;;11.38;;
351;SDS011;164;50.784;6.496;2024-01-07T07:13:37;15.45;;;11.32;;
351;SDS011;164;50.784;6.496;2024-01-07T07:16:04;14.10;;;10.82;;
351;SDS011;164;50.784;6.496;2024-01-07T07:18:33;16.23;;;10.23;;
351;SDS011;164;50.784;6.496;2024-01-07T07:21:00;16.45;;;11.90;;
351;SDS011;164;50.784;6.496;2024-01-07T07:23:28;14.98;;;10.75;;
351;SDS011;164;50.784;6.496;2024-01-07T07:25:55;17.75;;;11.45;;
351;SDS011;164;50.784;6.496;2024-01-07T07:28:22;17.55;;;11.07;;
351;SDS011;164;50.784;6.496;2024-01-07T07:30:49;19.92;;;14.00;;
351;SDS011;164;50.784;6.496;2024-01-07T07:33:17;16.50;;;11.93;;
351;SDS011;164;50.784;6.496;2024-01-07T07:35:45;15.18;;;11.30;;
351;SDS011;164;50.784;6.496;2024-01-07T07:38:13;15.85;;;11.40;;
351;SDS011;164;50.784;6.496;2024-01-07T07:40:40;17.23;;;11.88;;
351;SDS011;164;50.784;6.496;2024-01-07T07:43:09;15.38;;;10.52;;
351;SDS011;164;50.784;6.496;2024-01-07T07:45:37;18.20;;;12.82;;
351;SDS011;164;50.784;6.496;2024-01-07T07:48:05;17.00;;;12.10;;
351;SDS011;164;50.784;6.496;2024-01-07T07:50:32;21.60;;;15.52;;
351;SDS011;164;50.784;6.496;2024-01-07T07:53:01;16.90;;;12.20;;
351;SDS011;164;50.784;6.496;2024-01-07T07:55:28;20.15;;;14.55;;
351;SDS011;164;50.784;6.496;2024-01-07T07:57:55;17.63;;;14.45;;
351;SDS011;164;50.784;6.496;2024-01-07T08:00:23;18.48;;;12.55;;
351;SDS011;164;50.784;6.496;2024-01-07T08:02:50;18.90;;;13.40;;
351;SDS011;164;50.784;6.496;2024-01-07T08:05:18;23.13;;;14.10;;
351;SDS011;164;50.784;6.496;2024-01-07T08:07:45;23.95;;;15.23;;
351;SDS011;164;50.784;6.496;2024-01-07T08:10:13;22.00;;;14.50;;
351;SDS011;164;50.784;6.496;2024-01-07T08:12:41;20.38;;;14.15;;
351;SDS011;164;50.784;6.496;2024-01-07T08:15:08;20.10;;;14.35;;
351;SDS011;164;50.784;6.496;2024-01-07T08:17:36;16.85;;;13.00;;
351;SDS011;164;50.784;6.496;2024-01-07T08:20:04;19.15;;;13.05;;
351;SDS011;164;50.784;6.496;2024-01-07T08:22:31;21.42;;;13.93;;
351;SDS011;164;50.784;6.496;2024-01-07T08:24:58;16.95;;;12.50;;
351;SDS011;164;50.784;6.496;2024-01-07T08:27:26;20.77;;;14.23;;
351;SDS011;164;50.784;6.496;2024-01-07T08:29:54;18.60;;;10.60;;
351;SDS011;164;50.784;6.496;2024-01-07T08:32:21;24.90;;;15.68;;
351;SDS011;164;50.784;6.496;2024-01-07T08:34:49;23.70;;;15.57;;
351;SDS011;164;50.784;6.496;2024-01-07T08:37:16;21.52;;;14.00;;
351;SDS011;164;50.784;6.496;2024-01-07T08:39:43;17.48;;;13.85;;
351;SDS011;164;50.784;6.496;2024-01-07T08:42:10;23.00;;;15.68;;
351;SDS011;164;50.784;6.496;2024-01-07T08:44:39;18.10;;;14.18;;
351;SDS011;164;50.784;6.496;2024-01-07T08:47:07;20.25;;;14.30;;
351;SDS011;164;50.784;6.496;2024-01-07T08:49:34;16.90;;;13.68;;
351;SDS011;164;50.784;6.496;2024-01-07T08:52:03;18.90;;;14.20;;
351;SDS011;164;50.784;6.496;2024-01-07T08:54:31;20.95;;;15.85;;
351;SDS011;164;50.784;6.496;2024-01-07T08:56:58;16.98;;;13.50;;
351;SDS011;164;50.784;6.496;2024-01-07T08:59:25;19.92;;;14.52;;
351;SDS011;164;50.784;6.496;2024-01-07T09:01:54;17.45;;;14.30;;
351;SDS011;164;50.784;6.496;2024-01-07T09:04:21;25.90;;;16.17;;
351;SDS011;164;50.784;6.496;2024-01-07T09:06:49;21.25;;;14.98;;
351;SDS011;164;50.784;6.496;2024-01-07T09:09:16;18.85;;;14.88;;
351;SDS011;164;50.784;6.496;2024-01-07T09:11:43;23.35;;;15.07;;
351;SDS011;164;50.784;6.496;2024-01-07T09:14:11;19.92;;;12.95;;
351;SDS011;164;50.784;6.496;2024-01-07T09:16:39;21.40;;;15.13;;
351;SDS011;164;50.784;6.496;2024-01-07T09:19:09;18.10;;;13.70;;
351;SDS011;164;50.784;6.496;2024-01-07T09:21:37;17.75;;;13.32;;
351;SDS011;164;50.784;6.496;2024-01-07T09:24:04;16.25;;;11.98;;
351;SDS011;164;50.784;6.496;2024-01-07T09:26:32;21.23;;;13.85;;
351;SDS011;164;50.784;6.496;2024-01-07T09:28:59;20.25;;;13.00;;
351;SDS011;164;50.784;6.496;2024-01-07T09:31:27;15.57;;;13.30;;
351;SDS011;164;50.784;6.496;2024-01-07T09:33:54;22.27;;;13.93;;
351;SDS011;164;50.784;6.496;2024-01-07T09:36:23;23.38;;;15.27;;
351;SDS011;164;50.784;6.496;2024-01-07T09:38:50;14.27;;;12.30;;
351;SDS011;164;50.784;6.496;2024-01-07T09:41:19;19.55;;;12.75;;
351;SDS011;164;50.784;6.496;2024-01-07T09:43:46;18.30;;;14.52;;
351;SDS011;164;50.784;6.496;2024-01-07T09:46:13;18.55;;;13.93;;
351;SDS011;164;50.784;6.496;2024-01-07T09:48:41;19.23;;;15.70;;
351;SDS011;164;50.784;6.496;2024-01-07T09:51:08;16.63;;;13.93;;
351;SDS011;164;50.784;6.496;2024-01-07T09:53:39;17.60;;;14.40;;
351;SDS011;164;50.784;6.496;2024-01-07T09:56:11;20.48;;;14.35;;
351;SDS011;164;50.784;6.496;2024-01-07T09:58:39;18.10;;;13.38;;
351;SDS011;164;50.784;6.496;2024-01-07T10:01:08;20.42;;;14.45;;
351;SDS011;164;50.784;6.496;2024-01-07T10:03:36;20.80;;;13.38;;
351;SDS011;164;50.784;6.496;2024-01-07T10:06:04;21.73;;;14.45;;
351;SDS011;164;50.784;6.496;2024-01-07T10:08:32;22.52;;;14.95;;
351;SDS011;164;50.784;6.496;2024-01-07T10:11:01;20.13;;;14.27;;
351;SDS011;164;50.784;6.496;2024-01-07T10:13:29;22.50;;;15.68;;
351;SDS011;164;50.784;6.496;2024-01-07T10:15:57;19.50;;;14.45;;
351;SDS011;164;50.784;6.496;2024-01-07T10:18:25;20.85;;;15.35;;
351;SDS011;164;50.784;6.496;2024-01-07T10:20:52;20.05;;;14.20;;
351;SDS011;164;50.784;6.496;2024-01-07T10:23:20;21.30;;;14.95;;
351;SDS011;164;50.784;6.496;2024-01-07T10:25:47;22.45;;;14.60;;
351;SDS011;164;50.784;6.496;2024-01-07T10:28:16;18.77;;;14.68;;
351;SDS011;164;50.784;6.496;2024-01-07T10:30:47;25.27;;;14.90;;
351;SDS011;164;50.784;6.496;2024-01-07T10:33:16;20.58;;;15.27;;
351;SDS011;164;50.784;6.496;2024-01-07T10:35:44;19.38;;;14.93;;
351;SDS011;164;50.784;6.496;2024-01-07T10:38:15;16.48;;;12.35;;
351;SDS011;164;50.784;6.496;2024-01-07T10:40:42;20.70;;;15.50;;
351;SDS011;164;50.784;6.496;2024-01-07T10:43:10;18.38;;;13.40;;
351;SDS011;164;50.784;6.496;2024-01-07T10:45:39;21.48;;;15.48;;
351;SDS011;164;50.784;6.496;2024-01-07T10:48:06;24.80;;;17.63;;
351;SDS011;164;50.784;6.496;2024-01-07T10:50:34;20.08;;;13.43;;
351;SDS011;164;50.784;6.496;2024-01-07T10:53:03;18.20;;;13.57;;
351;SDS011;164;50.784;6.496;2024-01-07T10:55:33;20.17;;;15.00;;
351;SDS011;164;50.784;6.496;2024-01-07T10:58:01;22.15;;;14.85;;
351;SDS011;164;50.784;6.496;2024-01-07T11:00:29;16.88;;;13.27;;
351;SDS011;164;50.784;6.496;2024-01-07T11:03:00;13.30;;;12.07;;
351;SDS011;164;50.784;6.496;2024-01-07T11:05:31;19.77;;;13.23;;
351;SDS011;164;50.784;6.496;2024-01-07T11:08:03;18.23;;;13.13;;
351;SDS011;164;50.784;6.496;2024-01-07T11:10:38;17.25;;;12.90;;
351;SDS011;164;50.784;6.496;2024-01-07T11:13:06;15.30;;;11.75;;
351;SDS011;164;50.784;6.496;2024-01-07T11:15:52;14.77;;;12.07;;
351;SDS011;164;50.784;6.496;2024-01-07T11:18:21;15.18;;;11.60;;
351;SDS011;164;50.784;6.496;2024-01-07T11:20:49;12.02;;;9.88;;
351;SDS011;164;50.784;6.496;2024-01-07T11:23:25;13.13;;;9.00;;
351;SDS011;164;50.784;6.496;2024-01-07T11:25:54;13.00;;;9.18;;
351;SDS011;164;50.784;6.496;2024-01-07T11:31:04;10.63;;;9.65;;
351;SDS011;164;50.784;6.496;2024-01-07T11:33:33;11.60;;;9.80;;
351;SDS011;164;50.784;6.496;2024-01-07T11:36:00;13.43;;;10.75;;
351;SDS011;164;50.784;6.496;2024-01-07T11:38:28;19.17;;;12.20;;
351;SDS011;164;50.784;6.496;2024-01-07T11:40:56;12.32;;;11.35;;
351;SDS011;164;50.784;6.496;2024-01-07T11:43:24;13.07;;;10.95;;
351;SDS011;164;50.784;6.496;2024-01-07T11:45:51;15.65;;;10.80;;
351;SDS011;164;50.784;6.496;2024-01-07T11:48:19;13.05;;;10.65;;
351;SDS011;164;50.784;6.496;2024-01-07T11:50:48;13.93;;;11.57;;
351;SDS011;164;50.784;6.496;2024-01-07T11:53:15;16.67;;;11.00;;
351;SDS011;164;50.784;6.496;2024-01-07T11:55:43;14.13;;;11.93;;
351;SDS011;164;50.784;6.496;2024-01-07T11:58:11;13.35;;;9.95;;
351;SDS011;164;50.784;6.496;2024-01-07T12:00:39;12.15;;;11.48;;
351;SDS011;164;50.784;6.496;2024-01-07T12:03:06;13.68;;;11.07;;
351;SDS011;164;50.784;6.496;2024-01-07T12:05:33;12.88;;;9.63;;
351;SDS011;164;50.784;6.496;2024-01-07T12:08:02;13.88;;;10.65;;
351;SDS011;164;50.784;6.496;2024-01-07T12:10:30;14.52;;;10.05;;
351;SDS011;164;50.784;6.496;2024-01-07T12:12:57;13.10;;;10.32;;
351;SDS011;164;50.784;6.496;2024-01-07T12:15:25;16.83;;;11.35;;
351;SDS011;164;50.784;6.496;2024-01-07T12:17:55;14.70;;;11.85;;
351;SDS011;164;50.784;6.496;2024-01-07T12:20:23;16.73;;;11.25;;
351;SDS011;164;50.784;6.496;2024-01-07T12:22:51;12.05;;;10.60;;
351;SDS011;164;50.784;6.496;2024-01-07T12:25:24;14.65;;;11.38;;
351;SDS011;164;50.784;6.496;2024-01-07T12:27:51;13.73;;;10.43;;
351;SDS011;164;50.784;6.496;2024-01-07T12:30:19;12.90;;;10.15;;
351;SDS011;164;50.784;6.496;2024-01-07T12:32:50;13.32;;;11.50;;
351;SDS011;164;50.784;6.496;2024-01-07T12:35:18;14.40;;;11.10;;
351;SDS011;164;50.784;6.496;2024-01-07T12:37:45;15.65;;;12.30;;
351;SDS011;164;50.784;6.496;2024-01-07T12:40:12;16.73;;;11.10;;
351;SDS011;164;50.784;6.496;2024-01-07T12:42:41;13.88;;;11.13;;
351;SDS011;164;50.784;6.496;2024-01-07T12:45:11;16.77;;;10.85;;
351;SDS011;164;50.784;6.496;2024-01-07T12:47:39;13.75;;;10.07;;
351;SDS011;164;50.784;6.496;2024-01-07T12:50:07;10.25;;;9.75;;
351;SDS011;164;50.784;6.496;2024-01-07T12:52:35;10.15;;;9.45;;
351;SDS011;164;50.784;6.496;2024-01-07T12:55:03;11.23;;;8.73;;
351;SDS011;164;50.784;6.496;2024-01-07T12:57:31;14.85;;;11.00;;
351;SDS011;164;50.784;6.496;2024-01-07T12:59:59;12.40;;;9.57;;
351;SDS011;164;50.784;6.496;2024-01-07T13:02:27;15.23;;;10.57;;
351;SDS011;164;50.784;6.496;2024-01-07T13:04:54;10.73;;;9.13;;
351;SDS011;164;50.784;6.496;2024-01-07T13:07:21;11.57;;;9.02;;
351;SDS011;164;50.784;6.496;2024-01-07T13:09:49;12.35;;;9.23;;
351;SDS011;164;50.784;6.496;2024-01-07T13:12:16;12.45;;;10.65;;
351;SDS011;164;50.784;6.496;2024-01-07T13:14:44;12.50;;;9.95;;
351;SDS011;164;50.784;6.496;2024-01-07T13:17:14;11.07;;;9.63;;
351;SDS011;164;50.784;6.496;2024-01-07T13:19:41;12.15;;;8.98;;
351;SDS011;164;50.784;6.496;2024-01-07T13:22:09;12.52;;;9.60;;
351;SDS011;164;50.784;6.496;2024-01-07T13:24:36;11.95;;;9.05;;
351;SDS011;164;50.784;6.496;2024-01-07T13:27:05;11.48;;;8.75;;
351;SDS011;164;50.784;6.496;2024-01-07T13:29:33;9.63;;;7.70;;
351;SDS011;164;50.784;6.496;2024-01-07T13:32:00;11.23;;;8.90;;
351;SDS011;164;50.784;6.496;2024-01-07T13:34:29;9.70;;;8.40;;
351;SDS011;164;50.784;6.496;2024-01-07T13:36:57;10.68;;;8.60;;
351;SDS011;164;50.784;6.496;2024-01-07T13:39:24;7.65;;;7.15;;
351;SDS011;164;50.784;6.496;2024-01-07T13:41:51;7.60;;;7.20;;
351;SDS011;164;50.784;6.496;2024-01-07T13:44:19;11.40;;;9.90;;
351;SDS011;164;50.784;6.496;2024-01-07T13:46:47;9.65;;;7.40;;
351;SDS011;164;50.784;6.496;2024-01-07T13:49:15;8.82;;;6.85;;
351;SDS011;164;50.784;6.496;2024-01-07T13:51:44;7.68;;;6.90;;
351;SDS011;164;50.784;6.496;2024-01-07T13:54:11;11.18;;;8.38;;
351;SDS011;164;50.784;6.496;2024-01-07T13:56:41;7.07;;;6.65;;
351;SDS011;164;50.784;6.496;2024-01-07T13:59:09;8.70;;;7.13;;
351;SDS011;164;50.784;6.496;2024-01-07T14:01:37;7.68;;;6.45;;
351;SDS011;164;50.784;6.496;2024-01-07T14:04:04;8.40;;;7.35;;
351;SDS011;164;50.784;6.496;2024-01-07T14:06:32;7.63;;;6.72;;
351;SDS011;164;50.784;6.496;2024-01-07T14:09:01;7.50;;;6.45;;
351;SDS011;164;50.784;6.496;2024-01-07T14:11:31;6.47;;;6.10;;
351;SDS011;164;50.784;6.496;2024-01-07T14:13:59;8.75;;;6.70;;
351;SDS011;164;50.784;6.496;2024-01-07T14:16:27;8.38;;;6.40;;
351;SDS011;164;50.784;6.496;2024-01-07T14:18:55;6.70;;;5.57;;
351;SDS011;164;50.784;6.496;2024-01-07T14:21:22;8.68;;;6.13;;
351;SDS011;164;50.784;6.496;2024-01-07T14:23:49;8.93;;;5.60;;
351;SDS011;164;50.784;6.496;2024-01-07T14:26:19;6.07;;;5.35;;
351;SDS011;164;50.784;6.496;2024-01-07T14:28:48;8.88;;;7.03;;
351;SDS011;164;50.784;6.496;2024-01-07T14:31:16;8.02;;;6.70;;
351;SDS011;164;50.784;6.496;2024-01-07T14:33:43;6.18;;;5.88;;
351;SDS011;164;50.784;6.496;2024-01-07T14:36:13;8.02;;;7.53;;
351;SDS011;164;50.784;6.496;2024-01-07T14:38:43;8.38;;;6.88;;
351;SDS011;164;50.784;6.496;2024-01-07T14:41:12;9.55;;;6.78;;
351;SDS011;164;50.784;6.496;2024-01-07T14:43:41;6.38;;;6.00;;
351;SDS011;164;50.784;6.496;2024-01-07T14:46:08;11.52;;;7.70;;
351;SDS011;164;50.784;6.496;2024-01-07T14:48:36;7.25;;;6.40;;
351;SDS011;164;50.784;6.496;2024-01-07T14:51:04;6.07;;;5.78;;
351;SDS011;164;50.784;6.496;2024-01-07T14:53:31;6.18;;;5.85;;
351;SDS011;164;50.784;6.496;2024-01-07T14:55:59;5.85;;;5.45;;
351;SDS011;164;50.784;6.496;2024-01-07T14:58:26;6.75;;;5.60;;
351;SDS011;164;50.784;6.496;2024-01-07T15:00:58;6.72;;;6.32;;
351;SDS011;164;50.784;6.496;2024-01-07T15:03:27;8.32;;;5.25;;
351;SDS011;164;50.784;6.496;2024-01-07T15:05:56;5.72;;;5.35;;
351;SDS011;164;50.784;6.496;2024-01-07T15:08:23;8.55;;;5.65;;
351;SDS011;164;50.784;6.496;2024-01-07T15:10:51;6.00;;;4.43;;
351;SDS011;164;50.784;6.496;2024-01-07T15:13:18;5.38;;;4.95;;
351;SDS011;164;50.784;6.496;2024-01-07T15:15:48;6.97;;;5.93;;
351;SDS011;164;50.784;6.496;2024-01-07T15:18:16;5.38;;;4.75;;
351;SDS011;164;50.784;6.496;2024-01-07T15:20:44;5.75;;;5.45;;
351;SDS011;164;50.784;6.496;2024-01-07T15:23:11;6.60;;;5.45;;
351;SDS011;164;50.784;6.496;2024-01-07T15:25:39;6.75;;;4.88;;